Time;durP1;ratioP1;P1;durP2;ratioP2;P2;SDS_P1;SDS_P2;PMS_P1;PMS_P2;Temp;Humidity;BMP_temperature;BMP_pressure;BME280_temperature;BME280_humidity;BME280_pressure;Samples;Min_cycle;Max_cycle;Signal;HPM_P1;HPM_P2
2023/04/22 00:02:01;;;;;;;6.28;5.68;;;;;;;;;;4853646;29;20052;-87
2023/04/22 00:04:29;;;;;;;7.47;5.97;;;;;;;;;;4856910;23;20101;-87
2023/04/22 00:06:55;;;;;;;6.78;5.40;;;;;;;;;;4850964;29;20053;-87
2023/04/22 00:09:24;;;;;;;7.15;6.25;;;;;;;;;;4869847;29;20057;-87
2023/04/22 00:11:51;;;;;;;8.57;6.93;;;12.30;99.90;;;;;;4853498;29;20060;-87
2023/04/22 00:14:27;;;;;;;10.15;6.40;;;;;;;;;;4868160;29;20038;-87
2023/04/22 00:17:09;;;;;;;9.00;5.82;;;;;;;;;;4850254;29;20052;-86
2023/04/22 00:19:40;;;;;;;6.20;5.45;;;;;;;;;;4850967;29;20106;-86
2023/04/22 00:22:06;;;;;;;9.38;6.50;;;;;;;;;;4851211;29;20054;-86
2023/04/22 00:24:54;;;;;;;8.38;5.90;;;;;;;;;;4849199;29;20049;-86
2023/04/22 00:27:23;;;;;;;6.00;5.40;;;;;;;;;;4850087;29;20457;-86
2023/04/22 00:29:55;;;;;;;6.03;5.43;;;;;;;;;;4848546;29;20092;-86
2023/04/22 00:32:28;;;;;;;7.68;5.80;;;;;;;;;;4851708;29;20049;-86
2023/04/22 00:34:54;;;;;;;6.05;5.38;;;;;;;;;;4848339;29;20061;-87
2023/04/22 00:37:20;;;;;;;8.27;5.85;;;;;;;;;;4848586;29;20049;-85
2023/04/22 00:39:47;;;;;;;6.63;5.60;;;;;;;;;;4848534;29;20086;-86
2023/04/22 00:42:13;;;;;;;6.78;5.32;;;;;;;;;;4816809;29;20048;-86
2023/04/22 00:44:41;;;;;;;8.57;6.07;;;;;;;;;;4834019;29;20121;-86
2023/04/22 00:47:07;;;;;;;6.95;6.05;;;;;;;;;;4829304;29;20042;-87
2023/04/22 00:49:34;;;;;;;7.85;5.65;;;;;;;;;;4830240;29;20057;-88
2023/04/22 00:52:00;;;;;;;6.60;5.90;;;;;;;;;;4816888;29;20052;-89
2023/04/22 00:54:27;;;;;;;7.07;6.22;;;;;;;;;;4831979;29;20053;-89
2023/04/22 00:56:54;;;;;;;11.57;6.15;;;;;;;;;;4818964;29;20050;-87
2023/04/22 00:59:20;;;;;;;8.35;6.70;;;;;;;;;;4835276;29;20500;-86
2023/04/22 01:01:46;;;;;;;9.02;6.32;;;;;;;;;;4837007;29;20061;-89
2023/04/22 01:04:13;;;;;;;7.70;5.90;;;;;;;;;;4835154;29;20053;-87
2023/04/22 01:06:40;;;;;;;8.60;6.32;;;;;;;;;;4835269;29;20507;-91
2023/04/22 01:09:06;;;;;;;9.68;5.85;;;;;;;;;;4837120;29;20053;-87
2023/04/22 01:11:33;;;;;;;7.50;6.35;;;;;;;;;;4836411;29;20045;-87
2023/04/22 01:13:59;;;;;;;7.03;6.05;;;;;;;;;;4836766;29;20133;-89
2023/04/22 01:16:27;;;;;;;7.85;6.18;;;;;;;;;;4836484;29;20133;-87
2023/04/22 01:18:53;;;;;;;9.57;6.40;;;;;;;;;;4819348;29;20137;-87
2023/04/22 01:21:19;;;;;;;7.07;6.35;;;;;;;;;;4834585;29;20054;-87
2023/04/22 01:23:45;;;;;;;7.43;6.72;;;;;;;;;;4818681;29;20049;-86
2023/04/22 01:26:12;;;;;;;8.13;7.32;;;;;;;;;;4834071;29;20057;-88
2023/04/22 01:28:38;;;;;;;9.93;7.85;;;;;;;;;;4835877;29;20046;-93
2023/04/22 01:31:04;;;;;;;9.85;8.05;;;;;;;;;;4835386;29;20083;-87
2023/04/22 01:33:32;;;;;;;9.77;7.25;;;;;;;;;;4820213;29;20046;-91
2023/04/22 01:35:58;;;;;;;9.50;8.60;;;;;;;;;;4820583;29;20113;-88
2023/04/22 01:38:36;;;;;;;8.60;7.70;;;;;;;;;;4838411;29;20085;-90
2023/04/22 01:41:02;;;;;;;10.10;9.05;;;;;;;;;;4838625;29;20033;-88
2023/04/22 01:43:31;;;;;;;13.60;8.70;;;;;;;;;;4843188;29;20207;-87
2023/04/22 01:45:57;;;;;;;9.55;8.05;;;;;;;;;;4831456;29;20052;-86
2023/04/22 01:48:33;;;;;;;8.95;8.05;;;;;;;;;;4845313;29;20058;-87
2023/04/22 01:50:59;;;;;;;10.45;8.95;;;;;;;;;;4844370;29;20494;-86
2023/04/22 01:53:32;;;;;;;12.20;8.52;;;;;;;;;;4844951;29;20583;-87
2023/04/22 01:55:59;;;;;;;11.95;7.10;;;;;;;;;;4828911;29;20077;-86
2023/04/22 01:58:28;;;;;;;9.30;8.07;;;;;;;;;;4845384;29;20465;-87
2023/04/22 02:00:54;;;;;;;8.25;7.35;;;;;;;;;;4845557;29;20060;-86
2023/04/22 02:03:20;;;;;;;8.88;7.97;;;;;;;;;;4842008;29;20089;-87
2023/04/22 02:05:46;;;;;;;10.00;8.52;;;;;;;;;;4843269;29;20058;-86
2023/04/22 02:08:12;;;;;;;11.80;7.68;;;;;;;;;;4844231;29;20109;-89
2023/04/22 02:10:38;;;;;;;8.55;7.65;;;;;;;;;;4843298;29;20050;-88
2023/04/22 02:13:04;;;;;;;8.93;7.97;;;;;;;;;;4810969;29;20662;-87
2023/04/22 02:15:31;;;;;;;9.10;8.27;;;;;;;;;;4834193;29;20054;-89
2023/04/22 02:17:57;;;;;;;10.90;7.85;;;;;;;;;;4833815;29;20053;-87
2023/04/22 02:20:23;;;;;;;9.65;8.45;;;;;;;;;;4833346;29;20054;-91
2023/04/22 02:22:49;;;;;;;11.15;8.45;;;;;;;;;;4833401;29;20057;-90
2023/04/22 02:25:15;;;;;;;13.77;9.30;;;;;;;;;;4834536;29;20050;-93
2023/04/22 02:27:41;;;;;;;10.35;8.65;;;;;;;;;;4835743;29;20376;-96
2023/04/22 02:30:08;;;;;;;13.40;9.20;;;;;;;;;;4838641;29;20046;-87
2023/04/22 02:32:35;;;;;;;16.05;9.82;;;;;;;;;;4839587;29;20060;-89
2023/04/22 02:35:02;;;;;;;11.57;9.48;;;;;;;;;;4841651;29;20056;-90
2023/04/22 02:37:28;;;;;;;13.68;10.00;;;;;;;;;;4807797;29;20056;-87
2023/04/22 02:39:54;;;;;;;12.05;10.00;;;;;;;;;;4823054;29;20046;-86
2023/04/22 02:42:20;;;;;;;12.60;9.13;;;;;;;;;;4809856;29;20110;-88
2023/04/22 02:44:47;;;;;;;14.63;9.20;;;;;;;;;;4821663;29;20046;-86
2023/04/22 02:47:13;;;;;;;12.57;9.30;;;;;;;;;;4823574;29;20057;-86
2023/04/22 02:49:39;;;;;;;13.52;10.52;;;;;;;;;;4822336;29;20048;-88
2023/04/22 02:52:05;;;;;;;10.75;9.35;;;;;;;;;;4805384;29;20045;-92
2023/04/22 02:54:32;;;;;;;12.65;10.20;;;;;;;;;;4803226;29;20046;-93
2023/04/22 02:56:58;;;;;;;14.30;10.32;;;;;;;;;;4837549;29;21351;-95
2023/04/22 02:59:24;;;;;;;10.23;8.90;;;;;;;;;;4819080;29;20052;-92
2023/04/22 03:01:50;;;;;;;12.27;10.30;;;;;;;;;;4834031;29;20054;-94
2023/04/22 03:04:16;;;;;;;11.82;10.10;;;;;;;;;;4818195;29;20042;-87
2023/04/22 03:06:42;;;;;;;10.07;9.07;;;;;;;;;;4834113;29;20062;-91
2023/04/22 03:09:08;;;;;;;9.57;8.52;;;;;;;;;;4835650;29;20054;-92
2023/04/22 03:11:34;;;;;;;13.90;8.25;;;;;;;;;;4836579;29;20050;-90
2023/04/22 03:14:00;;;;;;;12.68;8.77;;;;;;;;;;4838050;29;20113;-85
2023/04/22 03:16:26;;;;;;;9.30;8.23;;;;;;;;;;4822493;29;20125;-87
2023/04/22 03:18:52;;;;;;;10.60;8.93;;;;;;;;;;4837381;29;20057;-86
2023/04/22 03:21:18;;;;;;;8.43;7.50;;;;;;;;;;4829770;29;20050;-87
2023/04/22 03:23:45;;;;;;;8.20;7.15;;;;;;;;;;4834872;29;20134;-86
2023/04/22 03:26:16;;;;;;;9.43;7.13;;;;;;;;;;4846287;29;20187;-94
2023/04/22 03:28:42;;;;;;;15.77;7.35;;;;;;;;;;4837926;29;20042;-88
2023/04/22 03:31:08;;;;;;;22.75;7.70;;;;;;;;;;4832347;29;20041;-87
2023/04/22 03:33:34;;;;;;;17.42;7.70;;;;;;;;;;4847855;29;20041;-93
2023/04/22 03:36:01;;;;;;;8.82;7.38;;;;;;;;;;4829090;29;20083;-86
2023/04/22 03:38:28;;;;;;;8.32;6.80;;;;;;;;;;4852619;29;20551;-89
2023/04/22 03:41:01;;;;;;;7.22;6.53;;;;;;;;;;4851364;29;20056;-87
2023/04/22 03:43:28;;;;;;;8.32;7.03;;;;;;;;;;4823596;29;20060;-86
2023/04/22 03:45:55;;;;;;;7.82;6.95;;;;;;;;;;4841046;29;20049;-86
2023/04/22 03:48:21;;;;;;;9.60;7.00;;;;;;;;;;4842678;29;20050;-94
2023/04/22 03:50:47;;;;;;;9.00;7.43;;;;;;;;;;4836377;29;20037;-86
2023/04/22 03:53:13;;;;;;;9.50;8.50;;;;;;;;;;4822464;29;20582;-92
2023/04/22 03:55:39;;;;;;;10.25;8.70;;;;;;;;;;4838236;29;20549;-92
2023/04/22 03:58:05;;;;;;;8.70;7.80;;;;;;;;;;4837568;29;20060;-86
2023/04/22 04:00:32;;;;;;;9.23;7.70;;;;;;;;;;4854694;29;20095;-85
2023/04/22 04:02:58;;;;;;;10.75;8.95;;;;;;;;;;4841389;29;20067;-86
2023/04/22 04:05:25;;;;;;;8.43;7.57;;;;;;;;;;4859441;29;20121;-92
2023/04/22 04:07:52;;;;;;;11.00;7.90;;;;;;;;;;4826547;29;20078;-87
2023/04/22 04:10:19;;;;;;;9.18;7.68;;;;;;;;;;4855442;29;20066;-85
2023/04/22 04:12:45;;;;;;;8.25;7.40;;;;;;;;;;4855586;29;20034;-86
2023/04/22 04:15:20;;;;;;;11.05;8.13;;;;;;;;;;4854614;29;20045;-86
2023/04/22 04:17:52;;;;;;;26.80;8.80;;;;;;;;;;4856604;29;20070;-87
2023/04/22 04:20:18;;;;;;;7.47;6.68;;;;;;;;;;4849284;29;20083;-96
2023/04/22 04:22:45;;;;;;;8.05;7.25;;;;;;;;;;4838686;29;20046;-96
2023/04/22 04:25:11;;;;;;;7.68;6.88;;;;;;;;;;4839547;29;20100;-94
2023/04/22 04:27:38;;;;;;;8.75;6.93;;;;;;;;;;4837451;29;20131;-94
2023/04/22 04:30:05;;;;;;;9.48;8.25;;;;;;;;;;4835362;29;20062;-87
2023/04/22 04:32:34;;;;;;;8.80;7.82;;;;;;;;;;4818474;29;20759;-94
2023/04/22 04:35:01;;;;;;;8.65;7.80;;;;;;;;;;4836250;29;20056;-85
2023/04/22 04:37:27;;;;;;;9.07;8.23;;;;;;;;;;4834354;29;20097;-88
2023/04/22 04:39:53;;;;;;;9.20;7.97;;;;;;;;;;4835783;29;20122;-93
2023/04/22 04:42:19;;;;;;;8.90;8.00;;;;;;;;;;4827692;29;20057;-96
2023/04/22 04:44:49;;;;;;;10.45;8.15;;;;;;;;;;4843921;29;20099;-95
2023/04/22 04:47:15;;;;;;;11.65;9.65;;;;;;;;;;4826012;29;20057;-90
2023/04/22 04:49:42;;;;;;;10.68;8.50;;;;;;;;;;4831960;29;20058;-96
2023/04/22 04:52:10;;;;;;;10.15;8.75;;;;;;;;;;4816756;29;20046;-85
2023/04/22 04:54:36;;;;;;;10.18;8.80;;;;;;;;;;4826431;29;20121;-86
2023/04/22 04:57:02;;;;;;;9.98;8.38;;;;;;;;;;4838489;29;20037;-86
2023/04/22 04:59:31;;;;;;;9.95;8.32;;;;;;;;;;4837892;29;20079;-86
2023/04/22 05:02:09;;;;;;;11.30;9.48;;;;;;;;;;4838128;29;20093;-86
2023/04/22 05:04:35;;;;;;;9.85;8.85;;;;;;;;;;4833784;29;20093;-87
2023/04/22 05:07:02;;;;;;;13.60;10.00;;;;;;;;;;4835664;29;20089;-86
2023/04/22 05:09:29;;;;;;;11.35;9.63;;;;;;;;;;4835070;29;20050;-86
2023/04/22 05:11:55;;;;;;;11.75;9.35;;;;;;;;;;4832114;29;20814;-87
2023/04/22 05:14:21;;;;;;;12.80;10.02;;;;;;;;;;4833738;29;20060;-87
2023/04/22 05:16:47;;;;;;;13.73;9.68;;;;;;;;;;4836491;29;20419;-85
2023/04/22 05:19:33;;;;;;;15.25;10.88;;;;;;;;;;4851591;23;20462;-86
2023/04/22 05:22:05;;;;;;;13.40;11.13;;;;;;;;;;4825264;29;20511;-86
2023/04/22 05:24:31;;;;;;;14.32;10.82;;;;;;;;;;4840480;29;20527;-87
2023/04/22 05:27:07;;;;;;;16.50;12.00;;;;;;;;;;4868550;29;20399;-88
2023/04/22 05:29:39;;;;;;;12.77;10.27;;;;;;;;;;4853514;29;20114;-85
2023/04/22 05:32:08;;;;;;;11.68;10.18;;;;;;;;;;4858132;29;20057;-86
2023/04/22 05:34:36;;;;;;;10.20;9.02;;;;;;;;;;4853535;29;20530;-86
2023/04/22 05:37:04;;;;;;;12.95;10.50;;;;;;;;;;4861375;29;20057;-89
2023/04/22 05:39:30;;;;;;;13.68;11.05;;;;;;;;;;4863213;29;20451;-87
2023/04/22 05:41:56;;;;;;;12.32;10.98;;;;;;;;;;4863806;29;20040;-87
2023/04/22 05:44:27;;;;;;;13.38;10.95;;;;;;;;;;4864114;29;20124;-86
2023/04/22 05:46:54;;;;;;;13.60;11.25;;;;;;;;;;4842809;29;20045;-89
2023/04/22 05:49:20;;;;;;;13.77;11.05;;;;;;;;;;4862329;29;20406;-87
2023/04/22 05:51:46;;;;;;;13.85;11.15;;;;;;;;;;4826297;29;20095;-86
2023/04/22 05:54:12;;;;;;;11.82;10.38;;;;;;;;;;4857090;29;20049;-87
2023/04/22 05:56:40;;;;;;;16.05;12.73;;;;;;;;;;4864104;29;20106;-88
2023/04/22 05:59:06;;;;;;;13.48;11.23;;;;;;;;;;4862720;29;20041;-86
2023/04/22 06:01:32;;;;;;;14.10;11.10;;;;;;;;;;4853380;29;20057;-86
2023/04/22 06:03:58;;;;;;;14.65;11.43;;;;;;;;;;4853289;29;20661;-86
2023/04/22 06:06:24;;;;;;;17.10;12.20;;;;;;;;;;4856342;29;20049;-86
2023/04/22 06:08:51;;;;;;;12.73;11.32;;;;;;;;;;4842455;29;20113;-89
2023/04/22 06:11:18;;;;;;;17.50;12.95;;;;;;;;;;4856630;29;20091;-87
2023/04/22 06:13:44;;;;;;;14.35;11.23;;;;;;;;;;4861526;29;20156;-87
2023/04/22 06:16:10;;;;;;;16.25;11.55;;;;;;;;;;4859675;29;20059;-86
2023/04/22 06:18:39;;;;;;;21.35;12.55;;;;;;;;;;4861009;29;20049;-87
2023/04/22 06:21:06;;;;;;;15.25;12.13;;;;;;;;;;4863847;29;20055;-86
2023/04/22 06:23:32;;;;;;;12.38;11.07;;;;;;;;;;4870932;29;20403;-86
2023/04/22 06:26:00;;;;;;;16.02;12.02;;;;;;;;;;4855569;29;20057;-85
2023/04/22 06:28:26;;;;;;;15.75;12.63;;;;;;;;;;4857280;29;20427;-87
2023/04/22 06:30:53;;;;;;;14.27;11.73;;;;;;;;;;4873575;29;20081;-86
2023/04/22 06:33:20;;;;;;;15.35;11.85;;;;;;;;;;4876289;29;20049;-86
2023/04/22 06:35:55;;;;;;;16.05;12.07;;;;;;;;;;4872455;29;20048;-86
2023/04/22 06:38:21;;;;;;;16.27;12.07;;;;;;;;;;4854926;29;20041;-85
2023/04/22 06:40:47;;;;;;;14.00;12.43;;;;;;;;;;4871278;29;20041;-86
2023/04/22 06:43:13;;;;;;;16.17;11.65;;;;;;;;;;4825355;29;20108;-88
2023/04/22 06:45:39;;;;;;;16.67;11.65;;;;;;;;;;4874213;29;20045;-86
2023/04/22 06:48:05;;;;;;;13.52;11.55;;;;;;;;;;4857820;29;20494;-86
2023/04/22 06:50:31;;;;;;;15.40;10.80;;;;;;;;;;4828522;29;20084;-86
2023/04/22 06:52:57;;;;;;;12.95;10.85;;;;;;;;;;4856807;29;20093;-86
2023/04/22 06:55:23;;;;;;;12.93;10.32;;;;;;;;;;4839168;29;20045;-86
2023/04/22 06:57:50;;;;;;;14.32;10.45;;;;;;;;;;4823232;29;20306;-86
2023/04/22 07:00:16;;;;;;;15.55;11.82;;;;;;;;;;4838652;29;20459;-86
2023/04/22 07:02:42;;;;;;;14.15;11.45;;;;;;;;;;4853647;29;20058;-86
2023/04/22 07:05:08;;;;;;;17.65;11.88;;;;;;;;;;4823439;29;20089;-86
2023/04/22 07:07:35;;;;;;;13.25;11.35;;;;;;;;;;4839439;29;20056;-88
2023/04/22 07:10:01;;;;;;;13.43;11.20;;;;;;;;;;4838218;29;20074;-88
2023/04/22 07:12:27;;;;;;;15.55;11.05;;;;;;;;;;4840889;29;20049;-87
2023/04/22 07:14:53;;;;;;;16.50;12.07;;;;;;;;;;4855146;29;20319;-87
2023/04/22 07:17:25;;;;;;;13.05;11.25;;;;;;;;;;4856717;29;20052;-89
2023/04/22 07:19:57;;;;;;;13.73;10.90;;;;;;;;;;4839781;29;20049;-88
2023/04/22 07:22:24;;;;;;;15.88;12.02;;;;;;;;;;4857604;29;20041;-88
2023/04/22 07:24:50;;;;;;;12.63;11.25;;;;;;;;;;4843391;29;20060;-89
2023/04/22 07:27:17;;;;;;;14.80;11.48;;;;;;;;;;4844233;29;20053;-88
2023/04/22 07:29:43;;;;;;;13.15;10.68;;;;;;;;;;4844755;29;20494;-89
2023/04/22 07:32:09;;;;;;;15.77;11.75;;;;;;;;;;4822697;29;20490;-89
2023/04/22 07:34:35;;;;;;;14.32;11.35;;;;;;;;;;4854423;29;20271;-88
2023/04/22 07:37:01;;;;;;;15.77;12.18;;;;;;;;;;4854231;29;20421;-89
2023/04/22 07:39:30;;;;;;;14.32;11.15;;;;;;;;;;4868654;29;20049;-89
2023/04/22 07:41:57;;;;;;;15.00;11.15;;;;;;;;;;4837627;29;20074;-89
2023/04/22 07:44:23;;;;;;;15.50;11.23;;;;;;;;;;4853372;29;20092;-88
2023/04/22 07:46:49;;;;;;;14.63;12.05;;;;;;;;;;4840693;29;20482;-89
2023/04/22 07:49:16;;;;;;;15.73;10.80;;;;;;;;;;4854170;29;20069;-87
2023/04/22 07:51:43;;;;;;;13.10;11.18;;;;;;;;;;4842389;29;20651;-91
2023/04/22 07:54:09;;;;;;;11.73;10.50;;;;;;;;;;4858605;29;20052;-88
2023/04/22 07:56:35;;;;;;;12.57;10.93;;;;;;;;;;4881316;29;20047;-87
2023/04/22 07:59:02;;;;;;;13.68;10.38;;;;;;;;;;4862357;29;20041;-86
2023/04/22 08:01:28;;;;;;;15.18;10.13;;;;;;;;;;4878488;29;20041;-87
2023/04/22 08:03:54;;;;;;;13.88;11.40;;;;;;;;;;4877275;29;20056;-90
2023/04/22 08:06:21;;;;;;;16.17;9.98;;;;;;;;;;4845850;29;20061;-87
2023/04/22 08:09:07;;;;;;;12.90;10.20;;;;;;;;;;4863787;29;20052;-91
2023/04/22 08:11:33;;;;;;;30.17;14.93;;;;;;;;;;4875193;29;20498;-90
2023/04/22 08:14:04;;;;;;;16.70;11.90;;;;;;;;;;4891935;29;20160;-91
2023/04/22 08:16:34;;;;;;;13.90;10.60;;;;;;;;;;4869962;29;20134;-90
2023/04/22 08:19:00;;;;;;;13.73;11.23;;;;;;;;;;4855308;29;20502;-90
2023/04/22 08:21:27;;;;;;;12.55;10.20;;;;;;;;;;4867981;29;20123;-90
2023/04/22 08:24:05;;;;;;;11.35;9.68;;;;;;;;;;4838198;29;20158;-90
2023/04/22 08:27:01;;;;;;;12.27;9.82;;;;;;;;;;4862531;29;20061;-91
2023/04/22 08:29:29;;;;;;;17.30;11.45;;;;;;;;;;4864823;29;20546;-87
2023/04/22 08:31:56;;;;;;;14.85;10.13;;;;;;;;;;4850663;29;20057;-87
2023/04/22 08:34:23;;;;;;;10.88;8.82;;;;;;;;;;4851392;29;20045;-88
2023/04/22 08:36:49;;;;;;;15.52;10.85;;;;;;;;;;4850716;29;20564;-87
2023/04/22 08:39:16;;;;;;;13.23;9.75;;;;;;;;;;4848228;29;20031;-87
2023/04/22 08:41:49;;;;;;;13.50;9.02;;;;;;;;;;4862818;29;20069;-87
2023/04/22 08:46:55;;;;;;;10.80;9.70;;;;;;;;;;4778611;27;21488;-87
2023/04/22 08:49:23;;;;;;;12.15;10.13;;;;;;;;;;4901394;29;20055;-89
2023/04/22 08:51:51;;;;;;;15.57;9.95;;;;;;;;;;4870418;29;20041;-87
2023/04/22 08:54:18;;;;;;;11.45;10.20;;;;;;;;;;4899400;29;20048;-88
2023/04/22 08:57:01;;;;;;;12.75;9.73;;;;;;;;;;4907931;29;20044;-90
2023/04/22 08:59:33;;;;;;;11.75;9.52;;;;;;;;;;4901374;29;20092;-86
2023/04/22 09:02:04;;;;;;;12.00;10.10;;;;;;;;;;4898476;29;20104;-89
2023/04/22 09:04:37;;;;;;;11.60;9.57;;;;;;;;;;4887813;29;20044;-87
2023/04/22 09:07:22;;;;;;;12.77;9.95;;;;;;;;;;4878679;29;20080;-88
2023/04/22 09:09:59;;;;;;;11.80;9.75;;;;;;;;;;4880713;29;20112;-90
2023/04/22 09:12:31;;;;;;;12.27;10.57;;;;;;;;;;4913395;29;20063;-87
2023/04/22 09:14:58;;;;;;;13.93;9.60;;;;;;;;;;4901891;29;20052;-88
2023/04/22 09:17:42;;;;;;;12.50;10.02;;;14.30;99.90;;;;;;4883401;29;20068;-87
2023/04/22 09:23:25;;;;;;;13.75;9.65;;;;;;;;;;4866750;29;20070;-87
2023/04/22 09:25:51;;;;;;;;;;;14.90;99.90;;;;;;4881407;29;20134;-88
2023/04/22 09:28:20;;;;;;;10.88;9.05;;;;;;;;;;4879457;29;19924;-87
2023/04/22 09:30:53;;;;;;;11.57;8.40;;;;;;;;;;4834495;29;20156;-88
2023/04/22 09:33:25;;;;;;;12.20;9.63;;;;;;;;;;4888005;23;20045;-89
2023/04/22 09:35:51;;;;;;;13.48;9.73;;;;;;;;;;4895760;29;20048;-89
2023/04/22 09:38:32;;;;;;;11.32;8.68;;;15.30;99.90;;;;;;4895674;29;20056;-91
2023/04/22 09:41:11;;;;;;;11.80;9.60;;;;;;;;;;4879381;29;20056;-88
2023/04/22 09:43:48;;;;;;;14.80;10.30;;;;;;;;;;4877326;29;20064;-91
2023/04/22 09:46:15;;;;;;;10.77;9.65;;;;;;;;;;4852055;29;20165;-92
2023/04/22 09:48:46;;;;;;;10.93;9.43;;;;;;;;;;4869459;29;20549;-92
2023/04/22 09:51:16;;;;;;;13.32;10.00;;;;;;;;;;4864613;29;20467;-91
2023/04/22 09:53:42;;;;;;;11.85;8.85;;;;;;;;;;4865726;29;20041;-92
2023/04/22 09:56:08;;;;;;;11.07;9.88;;;;;;;;;;4865224;29;21151;-93
2023/04/22 09:58:38;;;;;;;11.63;9.07;;;;;;;;;;4864773;29;20596;-93
2023/04/22 10:01:05;;;;;;;13.90;8.90;;;;;;;;;;4864533;29;20101;-91
2023/04/22 10:03:31;;;;;;;10.88;9.27;;;;;;;;;;4836219;29;20084;-90
2023/04/22 10:05:58;;;;;;;10.45;8.90;;;;;;;;;;4872208;23;20045;-90
2023/04/22 10:08:25;;;;;;;13.20;9.70;;;;;;;;;;4861756;29;20108;-92
2023/04/22 10:10:51;;;;;;;10.43;8.88;;;;;;;;;;4858589;29;20077;-89
2023/04/22 10:13:17;;;;;;;10.80;8.80;;;;;;;;;;4843611;29;20052;-90
2023/04/22 10:15:54;;;;;;;12.07;8.93;;;16.30;99.90;;;;;;4865345;23;20499;-89
2023/04/22 10:18:28;;;;;;;18.85;8.73;;;16.40;99.90;;;;;;4840102;29;20108;-91
2023/04/22 10:20:56;;;;;;;11.70;9.48;;;16.10;99.90;;;;;;4839042;29;20054;-89
2023/04/22 10:23:24;;;;;;;11.88;8.55;;;;;;;;;;4821997;29;20088;-90
2023/04/22 10:25:53;;;;;;;11.55;8.50;;;16.60;99.90;;;;;;4839527;29;20507;-90
2023/04/22 10:28:20;;;;;;;11.13;8.10;;;;;;;;;;4856722;29;20068;-90
2023/04/22 10:30:55;;;;;;;7.88;7.07;;;;;;;;;;4841025;29;20480;-89
2023/04/22 11:44:25;;;;;;;11.25;6.95;;;18.80;99.90;;;;;;5896479;23;20025;31
2023/04/22 11:46:51;;;;;;;6.32;5.65;;;;;;;;;;4835154;29;20105;-88
2023/04/22 11:49:18;;;;;;;8.05;6.30;;;;;;;;;;4834690;29;20113;-89
2023/04/22 11:51:56;;;;;;;8.65;6.60;;;18.80;99.90;;;;;;4821926;29;20046;-88
2023/04/22 11:54:32;;;;;;;10.98;6.78;;;18.70;99.90;;;;;;4822635;29;20078;-89
2023/04/22 11:57:04;;;;;;;7.95;6.43;;;19.00;99.90;;;;;;4852946;29;20167;-88
2023/04/22 11:59:31;;;;;;;7.07;6.05;;;;;;;;;;4834591;29;20042;-89
2023/04/22 12:01:57;;;;;;;8.93;6.35;;;;;;;;;;4821485;29;21670;-88
2023/04/22 12:04:23;;;;;;;6.78;5.75;;;;;;;;;;4818801;29;20065;-89
2023/04/22 12:06:52;;;;;;;6.75;6.10;;;18.80;99.90;;;;;;4836464;29;20052;-89
2023/04/22 12:09:18;;;;;;;7.60;6.22;;;;;;;;;;4835932;29;20064;-90
2023/04/22 12:11:45;;;;;;;7.82;6.32;;;19.00;99.90;;;;;;4837940;29;20125;-87
2023/04/22 12:14:11;;;;;;;7.85;6.32;;;;;;;;;;4809163;29;20064;-88
2023/04/22 12:16:41;;;;;;;8.00;5.28;;;19.10;99.90;;;;;;4832715;29;20045;-88
2023/04/22 12:19:07;;;;;;;6.53;5.57;;;;;;;;;;4817291;29;20825;-88
2023/04/22 12:21:34;;;;;;;5.95;5.30;;;;;;;;;;4818582;29;20049;-87
2023/04/22 12:31:39;;;;;;;7.68;5.82;;;;;;;;;;4820716;29;20057;-88
2023/04/22 12:34:05;;;;;;;9.02;5.88;;;;;;;;;;4823201;29;20054;-89
2023/04/22 12:36:32;;;;;;;17.25;8.00;;;;;;;;;;4822545;29;20108;-89
2023/04/22 12:44:07;;;;;;;;;;;;;;;;;;;;;
2023/04/22 12:47:04;;;;;;;6.75;5.75;;;19.20;99.90;;;;;;4764721;30;20101;-91
2023/04/22 12:56:42;;;;;;;10.00;6.80;;;;;;;;;;4758422;30;20463;-90
2023/04/22 12:59:46;;;;;;;10.05;6.93;;;19.20;99.90;;;;;;4761714;30;20516;-90
2023/04/22 13:06:43;;;;;;;;;;;;;;;;;;;;;
2023/04/22 13:09:52;;;;;;;7.60;5.75;;;18.90;99.90;;;;;;4699411;30;20057;-90
2023/04/22 13:23:49;;;;;;;11.38;7.63;;;19.20;99.90;;;;;;4685380;30;20487;-90
2023/04/22 13:27:05;;;;;;;7.22;6.53;;;19.30;99.90;;;;;;4750271;29;20055;-91
2023/04/22 13:29:31;;;;;;;7.65;6.85;;;;;;;;;;4766826;29;21051;-91
2023/04/22 13:32:14;;;;;;;11.95;6.18;;;19.40;99.90;;;;;;4782471;29;20078;-91
2023/04/22 13:35:08;;;;;;;;;;;;;;;;;;;;;
2023/04/22 13:42:33;;;;;;;;;;;;;;;;;;;;;
2023/04/22 13:45:17;;;;;;;9.10;7.53;;;19.20;99.90;;;;;;4749645;30;20063;-91
2023/04/22 13:48:26;;;;;;;8.80;7.90;;;19.00;99.90;;;;;;4765098;29;20066;-90
2023/04/22 13:51:36;;;;;;;7.65;6.90;;;19.20;99.90;;;;;;4808141;29;20968;-91
2023/04/22 13:54:33;;;;;;;;;;;;;;;;;;;;;
2023/04/22 13:57:35;;;;;;;9.18;7.85;;;19.00;99.90;;;;;;4821879;29;20094;-91
2023/04/22 14:00:19;;;;;;;9.80;7.50;;;;;;;;;;4873385;29;20053;-90
2023/04/22 14:02:55;;;;;;;9.48;7.47;;;;;;;;;;4858208;29;20164;-90
2023/04/22 14:05:21;;;;;;;10.85;8.05;;;;;;;;;;4862295;29;20037;-88
2023/04/22 14:07:48;;;;;;;10.88;8.27;;;;;;;;;;4848560;29;20045;-88
2023/04/22 14:10:16;;;;;;;10.50;8.13;;;;;;;;;;4860294;29;20061;-90
2023/04/22 14:12:43;;;;;;;11.70;8.52;;;;;;;;;;4848475;29;20060;-91
2023/04/22 14:15:11;;;;;;;11.88;9.65;;;;;;;;;;4872618;29;20052;-91
2023/04/22 14:17:38;;;;;;;12.45;9.52;;;;;;;;;;4866939;29;20081;-90
2023/04/22 14:20:05;;;;;;;15.25;10.43;;;;;;;;;;4877097;29;20053;-90
2023/04/22 14:22:31;;;;;;;14.35;10.88;;;;;;;;;;4877333;29;20049;-90
2023/04/22 14:24:57;;;;;;;11.52;10.25;;;;;;;;;;4854922;29;20411;-90
2023/04/22 14:27:23;;;;;;;14.02;11.30;;;;;;;;;;4853397;29;20040;-90
2023/04/22 14:29:52;;;;;;;13.55;10.82;;;;;;;;;;4852416;29;20092;-88
2023/04/22 14:32:19;;;;;;;12.10;10.82;;;17.40;99.90;;;;;;4851796;29;20605;-88
2023/04/22 14:34:45;;;;;;;17.05;12.25;;;;;;;;;;4868858;29;20048;-91
2023/04/22 14:37:11;;;;;;;13.38;11.98;;;;;;;;;;4867037;29;20140;-91
2023/04/22 14:39:38;;;;;;;15.40;12.27;;;;;;;;;;4837178;29;20164;-89
2023/04/22 14:42:04;;;;;;;12.32;11.02;;;;;;;;;;4853367;29;20049;-90
2023/04/22 14:44:30;;;;;;;18.15;11.40;;;;;;;;;;4851830;29;20060;-87
2023/04/22 14:46:56;;;;;;;12.82;11.45;;;;;;;;;;4852221;29;20124;-90
2023/04/22 14:49:22;;;;;;;13.18;10.90;;;;;;;;;;4868268;29;20495;-90
2023/04/22 14:51:49;;;;;;;15.02;12.02;;;;;;;;;;4852327;29;20044;-87
2023/04/22 14:54:15;;;;;;;19.33;12.15;;;;;;;;;;4837038;29;20494;-89
2023/04/22 14:56:41;;;;;;;14.30;11.73;;;;;;;;;;4852799;29;20053;-92
2023/04/22 14:59:07;;;;;;;13.32;10.70;;;;;;;;;;4871276;29;20057;-89
2023/04/22 15:01:34;;;;;;;14.30;11.48;;;;;;;;;;4853260;29;20084;-89
2023/04/22 15:04:00;;;;;;;14.20;12.70;;;;;;;;;;4854238;29;20502;-86
2023/04/22 15:06:27;;;;;;;16.42;11.75;;;;;;;;;;4873478;29;20053;-90
2023/04/22 15:08:54;;;;;;;15.75;12.65;;;;;;;;;;4856861;29;20053;-87
2023/04/22 15:11:20;;;;;;;16.27;12.48;;;;;;;;;;4856034;29;20056;-89
2023/04/22 15:13:46;;;;;;;15.20;11.85;;;;;;;;;;4857702;29;20183;-91
2023/04/22 15:16:13;;;;;;;16.65;13.85;;;;;;;;;;4856850;29;20421;-88
2023/04/22 15:18:39;;;;;;;20.85;17.15;;;;;;;;;;4874808;29;20045;-88
2023/04/22 15:21:08;;;;;;;26.85;21.00;;;;;;;;;;4879123;29;20033;-89
2023/04/22 15:23:35;;;;;;;27.40;22.23;;;;;;;;;;4876526;29;20064;-87
2023/04/22 15:26:01;;;;;;;29.45;23.85;;;;;;;;;;4876467;29;20048;-86
2023/04/22 15:28:30;;;;;;;29.20;23.92;;;;;;;;;;4876461;29;20087;-89
2023/04/22 15:30:56;;;;;;;32.13;26.55;;;;;;;;;;4860570;29;21177;-90
2023/04/22 15:33:22;;;;;;;29.40;24.63;;;;;;;;;;4875747;29;20085;-89
2023/04/22 15:35:49;;;;;;;29.15;24.15;;;;;;;;;;4856334;29;20060;-89
2023/04/22 15:38:18;;;;;;;36.80;26.90;;;;;;;;;;4873459;29;20048;-88
2023/04/22 15:40:44;;;;;;;31.92;25.40;;;;;;;;;;4876735;29;20045;-91
2023/04/22 15:43:10;;;;;;;32.78;25.85;;;;;;;;;;4875808;29;20072;-91
2023/04/22 15:45:36;;;;;;;31.90;25.27;;;;;;;;;;4844434;29;20092;-87
2023/04/22 15:48:04;;;;;;;32.47;24.33;;;;;;;;;;4874815;29;20064;-90
2023/04/22 15:50:30;;;;;;;32.65;24.48;;;;;;;;;;4857573;29;20097;-88
2023/04/22 15:52:56;;;;;;;28.52;23.00;;;;;;;;;;4873915;29;20530;-90
2023/04/22 15:55:23;;;;;;;31.33;24.40;;;;;;;;;;4873057;29;20057;-91
2023/04/22 15:57:49;;;;;;;28.60;22.73;;;;;;;;;;4874226;29;20128;-88
2023/04/22 16:00:15;;;;;;;27.10;22.05;;;;;;;;;;4873236;29;20049;-90
2023/04/22 16:02:42;;;;;;;25.77;20.50;;;;;;;;;;4859955;29;20392;-88
2023/04/22 16:05:08;;;;;;;23.38;19.50;;;;;;;;;;4874343;29;20056;-88
2023/04/22 16:07:35;;;;;;;24.77;20.00;;;;;;;;;;4873809;29;20056;-87
2023/04/22 16:10:01;;;;;;;24.95;19.55;;;;;;;;;;4857116;29;20049;-90
2023/04/22 16:12:27;;;;;;;21.38;17.40;;;;;;;;;;4854729;29;20041;-88
2023/04/22 16:14:53;;;;;;;19.45;16.33;;;;;;;;;;4855956;29;20406;-86
2023/04/22 16:17:19;;;;;;;22.50;15.63;;;;;;;;;;4856802;29;20105;-89
2023/04/22 16:19:45;;;;;;;16.17;14.07;;;;;;;;;;4872462;29;20068;-87
2023/04/22 16:22:11;;;;;;;19.73;14.80;;;;;;;;;;4854962;29;20101;-88
2023/04/22 16:24:37;;;;;;;20.85;15.38;;;;;;;;;;4854395;29;20095;-85
2023/04/22 16:27:04;;;;;;;24.10;16.15;;;;;;;;;;4869856;29;20044;-88
2023/04/22 16:29:30;;;;;;;17.77;14.38;;;;;;;;;;4871900;29;20045;-86
2023/04/22 16:31:56;;;;;;;18.20;14.77;;;;;;;;;;4857319;29;20108;-87